<?xml version='1.0' encoding='UTF-8'?><gpx version="1.1" creator="JPX - https://github.com/jenetics/jpx" xmlns="http://www.topografix.com/GPX/1/1"><trk><trkseg><trkpt lat="43.5588556" lon="10.7505222"><ele>56.0</ele><time>2026-04-18T07:43:05.999Z</time></trkpt><trkpt lat="43.5589238" lon="10.7506414"><ele>55.99999999999999</ele><time>2026-04-18T07:43:07.999Z</time></trkpt><trkpt lat="43.5589712" lon="10.7507247"><ele>55.99999999999999</ele><time>2026-04-18T07:43:09Z</time></trkpt><trkpt lat="43.5590244" lon="10.750816"><ele>56.0</ele><time>2026-04-18T07:43:10Z</time></trkpt><trkpt lat="43.5590775" lon="10.7509185"><ele>56.0</ele><time>2026-04-18T07:43:11Z</time></trkpt><trkpt lat="43.5591185" lon="10.7510391"><ele>57.25</ele><time>2026-04-18T07:43:12Z</time></trkpt><trkpt lat="43.5591478" lon="10.7511686"><ele>58.5</ele><time>2026-04-18T07:43:13Z</time></trkpt><trkpt lat="43.5591661" lon="10.7513209"><ele>59.75</ele><time>2026-04-18T07:43:14Z</time></trkpt><trkpt lat="43.5591816" lon="10.7514854"><ele>61.0</ele><time>2026-04-18T07:43:14.999Z</time></trkpt><trkpt lat="43.5591963" lon="10.7516692"><ele>60.99999999999999</ele><time>2026-04-18T07:43:16Z</time></trkpt><trkpt lat="43.559214" lon="10.7518259"><ele>61.0</ele><time>2026-04-18T07:43:17Z</time></trkpt><trkpt lat="43.5592135" lon="10.7519666"><ele>61.0</ele><time>2026-04-18T07:43:18Z</time></trkpt><trkpt lat="43.5591996" lon="10.7520667"><ele>61.0</ele><time>2026-04-18T07:43:19Z</time></trkpt><trkpt lat="43.5591537" lon="10.7521285"><ele>60.99999999999999</ele><time>2026-04-18T07:43:19.999Z</time></trkpt><trkpt lat="43.5590821" lon="10.7521766"><ele>61.0</ele><time>2026-04-18T07:43:20.999Z</time></trkpt><trkpt lat="43.5589949" lon="10.7522162"><ele>62.0</ele><time>2026-04-18T07:43:22Z</time></trkpt><trkpt lat="43.5588973" lon="10.7522482"><ele>62.99999999999999</ele><time>2026-04-18T07:43:22.999Z</time></trkpt><trkpt lat="43.5588039" lon="10.7522896"><ele>63.99999999999999</ele><time>2026-04-18T07:43:23.999Z</time></trkpt><trkpt lat="43.5587197" lon="10.7523483"><ele>65.0</ele><time>2026-04-18T07:43:25Z</time></trkpt><trkpt lat="43.5586644" lon="10.752438"><ele>66.0</ele><time>2026-04-18T07:43:26Z</time></trkpt><trkpt lat="43.5586201" lon="10.7525537"><ele>66.5</ele><time>2026-04-18T07:43:27Z</time></trkpt><trkpt lat="43.5585789" lon="10.7527003"><ele>67.0</ele><time>2026-04-18T07:43:28Z</time></trkpt><trkpt lat="43.5585506" lon="10.7528687"><ele>67.5</ele><time>2026-04-18T07:43:29Z</time></trkpt><trkpt lat="43.5585264" lon="10.7530395"><ele>68.0</ele><time>2026-04-18T07:43:30Z</time></trkpt><trkpt lat="43.558509" lon="10.7532261"><ele>69.66666666666667</ele><time>2026-04-18T07:43:31Z</time></trkpt><trkpt lat="43.5584888" lon="10.7534274"><ele>71.33333333333333</ele><time>2026-04-18T07:43:32Z</time></trkpt><trkpt lat="43.5584602" lon="10.7536475"><ele>73.0</ele><time>2026-04-18T07:43:32.999Z</time></trkpt><trkpt lat="43.5584171" lon="10.7538902"><ele>76.33333333333333</ele><time>2026-04-18T07:43:34Z</time></trkpt><trkpt lat="43.558369" lon="10.7541302"><ele>79.66666666666667</ele><time>2026-04-18T07:43:35Z</time></trkpt><trkpt lat="43.5583106" lon="10.7543874"><ele>83.0</ele><time>2026-04-18T07:43:36Z</time></trkpt><trkpt lat="43.5582588" lon="10.7546404"><ele>85.33333333333334</ele><time>2026-04-18T07:43:37Z</time></trkpt><trkpt lat="43.558219" lon="10.7548599"><ele>87.66666666666667</ele><time>2026-04-18T07:43:38Z</time></trkpt><trkpt lat="43.5581741" lon="10.7550561"><ele>90.0</ele><time>2026-04-18T07:43:38.999Z</time></trkpt><trkpt lat="43.5581188" lon="10.7552375"><ele>90.0</ele><time>2026-04-18T07:43:40Z</time></trkpt><trkpt lat="43.5580354" lon="10.7554231"><ele>90.0</ele><time>2026-04-18T07:43:41Z</time></trkpt><trkpt lat="43.5579368" lon="10.7556126"><ele>90.0</ele><time>2026-04-18T07:43:42Z</time></trkpt><trkpt lat="43.5578632" lon="10.7557918"><ele>90.0</ele><time>2026-04-18T07:43:43Z</time></trkpt><trkpt lat="43.5578068" lon="10.7559379"><ele>90.0</ele><time>2026-04-18T07:43:44Z</time></trkpt><trkpt lat="43.5577771" lon="10.7560572"><ele>90.0</ele><time>2026-04-18T07:43:44.999Z</time></trkpt><trkpt lat="43.5577895" lon="10.7561931"><ele>90.0</ele><time>2026-04-18T07:43:45.999Z</time></trkpt><trkpt lat="43.5578332" lon="10.7563115"><ele>90.0</ele><time>2026-04-18T07:43:47Z</time></trkpt><trkpt lat="43.557884" lon="10.7564425"><ele>92.0</ele><time>2026-04-18T07:43:47.999Z</time></trkpt><trkpt lat="43.5579362" lon="10.756589"><ele>94.0</ele><time>2026-04-18T07:43:48.999Z</time></trkpt><trkpt lat="43.5579681" lon="10.7567481"><ele>96.0</ele><time>2026-04-18T07:43:50Z</time></trkpt><trkpt lat="43.5579783" lon="10.756922"><ele>98.0</ele><time>2026-04-18T07:43:51Z</time></trkpt><trkpt lat="43.5579744" lon="10.7571024"><ele>98.0</ele><time>2026-04-18T07:43:52Z</time></trkpt><trkpt lat="43.5579593" lon="10.7572804"><ele>98.0</ele><time>2026-04-18T07:43:53Z</time></trkpt><trkpt lat="43.55792" lon="10.7574926"><ele>98.0</ele><time>2026-04-18T07:43:54Z</time></trkpt><trkpt lat="43.5578816" lon="10.7577253"><ele>98.66666666666666</ele><time>2026-04-18T07:43:55Z</time></trkpt><trkpt lat="43.5578397" lon="10.757977"><ele>99.33333333333334</ele><time>2026-04-18T07:43:55.999Z</time></trkpt><trkpt lat="43.5577819" lon="10.7582233"><ele>100.0</ele><time>2026-04-18T07:43:57Z</time></trkpt><trkpt lat="43.5577182" lon="10.7584579"><ele>103.0</ele><time>2026-04-18T07:43:58Z</time></trkpt><trkpt lat="43.5576361" lon="10.7586635"><ele>106.0</ele><time>2026-04-18T07:43:59Z</time></trkpt><trkpt lat="43.5575396" lon="10.7588533"><ele>109.0</ele><time>2026-04-18T07:44:00Z</time></trkpt><trkpt lat="43.5574166" lon="10.7590274"><ele>109.0</ele><time>2026-04-18T07:44:00.999Z</time></trkpt><trkpt lat="43.5572942" lon="10.7591719"><ele>109.0</ele><time>2026-04-18T07:44:02Z</time></trkpt><trkpt lat="43.5571922" lon="10.7592904"><ele>109.0</ele><time>2026-04-18T07:44:02.999Z</time></trkpt><trkpt lat="43.5571163" lon="10.7594039"><ele>109.0</ele><time>2026-04-18T07:44:04Z</time></trkpt><trkpt lat="43.557066" lon="10.7595419"><ele>110.2</ele><time>2026-04-18T07:44:04.999Z</time></trkpt><trkpt lat="43.5570615" lon="10.7596684"><ele>111.4</ele><time>2026-04-18T07:44:05.999Z</time></trkpt><trkpt lat="43.5570784" lon="10.7597845"><ele>112.6</ele><time>2026-04-18T07:44:07Z</time></trkpt><trkpt lat="43.557119" lon="10.759912"><ele>113.8</ele><time>2026-04-18T07:44:08Z</time></trkpt><trkpt lat="43.5571571" lon="10.7600754"><ele>115.0</ele><time>2026-04-18T07:44:09Z</time></trkpt><trkpt lat="43.5571915" lon="10.7602459"><ele>116.25</ele><time>2026-04-18T07:44:10Z</time></trkpt><trkpt lat="43.5572267" lon="10.7604105"><ele>117.5</ele><time>2026-04-18T07:44:11Z</time></trkpt><trkpt lat="43.5572585" lon="10.7606015"><ele>118.75</ele><time>2026-04-18T07:44:11.999Z</time></trkpt><trkpt lat="43.5572911" lon="10.7608182"><ele>120.0</ele><time>2026-04-18T07:44:13Z</time></trkpt><trkpt lat="43.5573397" lon="10.7610576"><ele>121.33333333333334</ele><time>2026-04-18T07:44:13.999Z</time></trkpt><trkpt lat="43.5573907" lon="10.7613043"><ele>122.66666666666667</ele><time>2026-04-18T07:44:15Z</time></trkpt><trkpt lat="43.5574519" lon="10.7615645"><ele>124.0</ele><time>2026-04-18T07:44:16Z</time></trkpt><trkpt lat="43.5575014" lon="10.761824"><ele>125.0</ele><time>2026-04-18T07:44:17Z</time></trkpt><trkpt lat="43.5575547" lon="10.762083"><ele>126.0</ele><time>2026-04-18T07:44:18Z</time></trkpt><trkpt lat="43.5575979" lon="10.7623177"><ele>127.0</ele><time>2026-04-18T07:44:18.999Z</time></trkpt><trkpt lat="43.5576374" lon="10.7625276"><ele>128.25</ele><time>2026-04-18T07:44:20Z</time></trkpt><trkpt lat="43.5576426" lon="10.7627178"><ele>129.5</ele><time>2026-04-18T07:44:21Z</time></trkpt><trkpt lat="43.5576319" lon="10.7629113"><ele>130.75</ele><time>2026-04-18T07:44:22Z</time></trkpt><trkpt lat="43.5576103" lon="10.7631176"><ele>132.0</ele><time>2026-04-18T07:44:23Z</time></trkpt><trkpt lat="43.5575951" lon="10.7632854"><ele>132.0</ele><time>2026-04-18T07:44:24Z</time></trkpt><trkpt lat="43.5575961" lon="10.763437"><ele>132.0</ele><time>2026-04-18T07:44:25Z</time></trkpt><trkpt lat="43.5576185" lon="10.7635877"><ele>132.0</ele><time>2026-04-18T07:44:26Z</time></trkpt><trkpt lat="43.5576573" lon="10.7637296"><ele>132.0</ele><time>2026-04-18T07:44:27Z</time></trkpt><trkpt lat="43.5576999" lon="10.7638769"><ele>132.0</ele><time>2026-04-18T07:44:27.999Z</time></trkpt><trkpt lat="43.5577151" lon="10.7640262"><ele>133.4</ele><time>2026-04-18T07:44:28.999Z</time></trkpt><trkpt lat="43.5577041" lon="10.7641829"><ele>134.79999999999998</ele><time>2026-04-18T07:44:30Z</time></trkpt><trkpt lat="43.5576651" lon="10.7642988"><ele>136.2</ele><time>2026-04-18T07:44:31Z</time></trkpt><trkpt lat="43.5575355" lon="10.7643561"><ele>137.6</ele><time>2026-04-18T07:44:33Z</time></trkpt><trkpt lat="43.5574622" lon="10.7643789"><ele>139.0</ele><time>2026-04-18T07:44:34Z</time></trkpt><trkpt lat="43.5573655" lon="10.764434"><ele>141.0</ele><time>2026-04-18T07:44:35Z</time></trkpt><trkpt lat="43.5572799" lon="10.7645277"><ele>143.0</ele><time>2026-04-18T07:44:36Z</time></trkpt><trkpt lat="43.557225" lon="10.7646865"><ele>145.0</ele><time>2026-04-18T07:44:36.999Z</time></trkpt><trkpt lat="43.5571779" lon="10.7648483"><ele>147.0</ele><time>2026-04-18T07:44:38Z</time></trkpt><trkpt lat="43.5571269" lon="10.7650421"><ele>146.66666666666666</ele><time>2026-04-18T07:44:39Z</time></trkpt><trkpt lat="43.5570691" lon="10.765248"><ele>146.33333333333331</ele><time>2026-04-18T07:44:40Z</time></trkpt><trkpt lat="43.5570164" lon="10.7654489"><ele>146.0</ele><time>2026-04-18T07:44:40.999Z</time></trkpt><trkpt lat="43.5569621" lon="10.7656216"><ele>146.0</ele><time>2026-04-18T07:44:42Z</time></trkpt><trkpt lat="43.5568963" lon="10.7657668"><ele>146.0</ele><time>2026-04-18T07:44:43Z</time></trkpt><trkpt lat="43.5568206" lon="10.7658901"><ele>146.0</ele><time>2026-04-18T07:44:44Z</time></trkpt><trkpt lat="43.5567296" lon="10.7659961"><ele>146.0</ele><time>2026-04-18T07:44:45Z</time></trkpt><trkpt lat="43.5566199" lon="10.7661135"><ele>149.0</ele><time>2026-04-18T07:44:45.998Z</time></trkpt><trkpt lat="43.5564938" lon="10.7662303"><ele>152.0</ele><time>2026-04-18T07:44:46.999Z</time></trkpt><trkpt lat="43.5563842" lon="10.7663504"><ele>155.0</ele><time>2026-04-18T07:44:47.999Z</time></trkpt><trkpt lat="43.5562892" lon="10.7664457"><ele>158.0</ele><time>2026-04-18T07:44:48.999Z</time></trkpt><trkpt lat="43.5562042" lon="10.7665048"><ele>156.83333333333331</ele><time>2026-04-18T07:44:49.999Z</time></trkpt><trkpt lat="43.5561312" lon="10.7665389"><ele>155.66666666666666</ele><time>2026-04-18T07:44:50.999Z</time></trkpt><trkpt lat="43.55605" lon="10.7665702"><ele>154.5</ele><time>2026-04-18T07:44:51.999Z</time></trkpt><trkpt lat="43.5559676" lon="10.7665862"><ele>153.33333333333334</ele><time>2026-04-18T07:44:52.998Z</time></trkpt><trkpt lat="43.5558685" lon="10.766615"><ele>152.16666666666669</ele><time>2026-04-18T07:44:53.999Z</time></trkpt><trkpt lat="43.5557844" lon="10.766657"><ele>151.0</ele><time>2026-04-18T07:44:54.999Z</time></trkpt><trkpt lat="43.5557144" lon="10.7667146"><ele>151.0</ele><time>2026-04-18T07:44:55.999Z</time></trkpt><trkpt lat="43.5556627" lon="10.7667967"><ele>151.0</ele><time>2026-04-18T07:44:56.999Z</time></trkpt><trkpt lat="43.5556633" lon="10.7669104"><ele>151.0</ele><time>2026-04-18T07:44:57.998Z</time></trkpt><trkpt lat="43.5556771" lon="10.7669998"><ele>151.0</ele><time>2026-04-18T07:44:58.999Z</time></trkpt><trkpt lat="43.5557095" lon="10.7670922"><ele>151.0</ele><time>2026-04-18T07:44:59.999Z</time></trkpt><trkpt lat="43.5557534" lon="10.767188"><ele>151.0</ele><time>2026-04-18T07:45:00.998Z</time></trkpt><trkpt lat="43.5557949" lon="10.7673024"><ele>150.8</ele><time>2026-04-18T07:45:01.999Z</time></trkpt><trkpt lat="43.5558332" lon="10.7674294"><ele>150.6</ele><time>2026-04-18T07:45:02.998Z</time></trkpt><trkpt lat="43.5558844" lon="10.7675564"><ele>150.4</ele><time>2026-04-18T07:45:03.998Z</time></trkpt><trkpt lat="43.5559401" lon="10.7676819"><ele>150.2</ele><time>2026-04-18T07:45:04.998Z</time></trkpt><trkpt lat="43.5560008" lon="10.7677861"><ele>150.0</ele><time>2026-04-18T07:45:05.998Z</time></trkpt><trkpt lat="43.5560367" lon="10.7678757"><ele>149.0</ele><time>2026-04-18T07:45:06.999Z</time></trkpt><trkpt lat="43.5560005" lon="10.7680173"><ele>148.0</ele><time>2026-04-18T07:45:08.999Z</time></trkpt><trkpt lat="43.5559507" lon="10.7680984"><ele>147.0</ele><time>2026-04-18T07:45:09.999Z</time></trkpt><trkpt lat="43.5558729" lon="10.768187"><ele>146.0</ele><time>2026-04-18T07:45:10.999Z</time></trkpt><trkpt lat="43.5557751" lon="10.7682987"><ele>145.0</ele><time>2026-04-18T07:45:11.999Z</time></trkpt><trkpt lat="43.5556566" lon="10.7684479"><ele>142.5</ele><time>2026-04-18T07:45:12.999Z</time></trkpt><trkpt lat="43.5555035" lon="10.7686463"><ele>140.0</ele><time>2026-04-18T07:45:13.999Z</time></trkpt><trkpt lat="43.5553266" lon="10.7688866"><ele>139.33333333333331</ele><time>2026-04-18T07:45:14.999Z</time></trkpt><trkpt lat="43.5551576" lon="10.7691052"><ele>138.66666666666666</ele><time>2026-04-18T07:45:15.999Z</time></trkpt><trkpt lat="43.555025" lon="10.7692857"><ele>138.0</ele><time>2026-04-18T07:45:16.999Z</time></trkpt><trkpt lat="43.5549014" lon="10.7694359"><ele>137.25</ele><time>2026-04-18T07:45:17.999Z</time></trkpt><trkpt lat="43.554797" lon="10.7695625"><ele>136.5</ele><time>2026-04-18T07:45:18.999Z</time></trkpt><trkpt lat="43.5547053" lon="10.7696964"><ele>135.75</ele><time>2026-04-18T07:45:19.998Z</time></trkpt><trkpt lat="43.554627" lon="10.7698414"><ele>135.0</ele><time>2026-04-18T07:45:20.999Z</time></trkpt><trkpt lat="43.5545549" lon="10.7700107"><ele>137.33333333333334</ele><time>2026-04-18T07:45:21.999Z</time></trkpt><trkpt lat="43.5544742" lon="10.770223"><ele>139.66666666666669</ele><time>2026-04-18T07:45:22.999Z</time></trkpt><trkpt lat="43.5543911" lon="10.7704415"><ele>142.0</ele><time>2026-04-18T07:45:23.999Z</time></trkpt><trkpt lat="43.5543206" lon="10.770643"><ele>142.0</ele><time>2026-04-18T07:45:24.999Z</time></trkpt><trkpt lat="43.5542587" lon="10.7708293"><ele>142.0</ele><time>2026-04-18T07:45:25.999Z</time></trkpt><trkpt lat="43.5542107" lon="10.7709688"><ele>142.0</ele><time>2026-04-18T07:45:26.999Z</time></trkpt><trkpt lat="43.5541651" lon="10.7711103"><ele>142.0</ele><time>2026-04-18T07:45:27.999Z</time></trkpt><trkpt lat="43.5541297" lon="10.7712531"><ele>142.0</ele><time>2026-04-18T07:45:28.999Z</time></trkpt><trkpt lat="43.5541055" lon="10.7714046"><ele>142.0</ele><time>2026-04-18T07:45:29.998Z</time></trkpt><trkpt lat="43.5541051" lon="10.7715753"><ele>142.0</ele><time>2026-04-18T07:45:30.999Z</time></trkpt><trkpt lat="43.5541093" lon="10.77176"><ele>142.0</ele><time>2026-04-18T07:45:31.999Z</time></trkpt><trkpt lat="43.5541188" lon="10.7719744"><ele>142.0</ele><time>2026-04-18T07:45:32.999Z</time></trkpt><trkpt lat="43.5541393" lon="10.7722251"><ele>142.0</ele><time>2026-04-18T07:45:33.999Z</time></trkpt><trkpt lat="43.5541489" lon="10.7724963"><ele>142.0</ele><time>2026-04-18T07:45:34.998Z</time></trkpt><trkpt lat="43.5541569" lon="10.7727791"><ele>143.0</ele><time>2026-04-18T07:45:35.998Z</time></trkpt><trkpt lat="43.5541666" lon="10.7730548"><ele>144.0</ele><time>2026-04-18T07:45:36.999Z</time></trkpt><trkpt lat="43.554177" lon="10.7733415"><ele>145.0</ele><time>2026-04-18T07:45:37.999Z</time></trkpt><trkpt lat="43.5541823" lon="10.7736383"><ele>147.33333333333334</ele><time>2026-04-18T07:45:38.998Z</time></trkpt><trkpt lat="43.5541905" lon="10.7739315"><ele>149.66666666666666</ele><time>2026-04-18T07:45:39.999Z</time></trkpt><trkpt lat="43.5541791" lon="10.7742123"><ele>152.0</ele><time>2026-04-18T07:45:40.998Z</time></trkpt><trkpt lat="43.5541582" lon="10.7744728"><ele>154.0</ele><time>2026-04-18T07:45:41.999Z</time></trkpt><trkpt lat="43.5541272" lon="10.7747139"><ele>156.0</ele><time>2026-04-18T07:45:42.999Z</time></trkpt><trkpt lat="43.5541033" lon="10.7749047"><ele>158.0</ele><time>2026-04-18T07:45:43.998Z</time></trkpt><trkpt lat="43.5540825" lon="10.775061"><ele>160.0</ele><time>2026-04-18T07:45:44.998Z</time></trkpt><trkpt lat="43.5540869" lon="10.7751956"><ele>160.0</ele><time>2026-04-18T07:45:45.998Z</time></trkpt><trkpt lat="43.5541376" lon="10.7753037"><ele>160.0</ele><time>2026-04-18T07:45:46.999Z</time></trkpt><trkpt lat="43.5541955" lon="10.7754067"><ele>160.0</ele><time>2026-04-18T07:45:47.998Z</time></trkpt><trkpt lat="43.5542721" lon="10.775491"><ele>160.0</ele><time>2026-04-18T07:45:48.999Z</time></trkpt><trkpt lat="43.5543553" lon="10.7755522"><ele>160.0</ele><time>2026-04-18T07:45:49.999Z</time></trkpt><trkpt lat="43.5544448" lon="10.7756289"><ele>160.0</ele><time>2026-04-18T07:45:50.999Z</time></trkpt><trkpt lat="43.554523" lon="10.7757335"><ele>160.0</ele><time>2026-04-18T07:45:51.999Z</time></trkpt><trkpt lat="43.5546132" lon="10.7758773"><ele>160.0</ele><time>2026-04-18T07:45:52.999Z</time></trkpt><trkpt lat="43.5547087" lon="10.7760439"><ele>160.0</ele><time>2026-04-18T07:45:53.999Z</time></trkpt><trkpt lat="43.5548101" lon="10.7762296"><ele>165.25</ele><time>2026-04-18T07:45:54.999Z</time></trkpt><trkpt lat="43.5548972" lon="10.7763956"><ele>170.5</ele><time>2026-04-18T07:45:55.999Z</time></trkpt><trkpt lat="43.5549585" lon="10.7765574"><ele>175.75</ele><time>2026-04-18T07:45:56.999Z</time></trkpt><trkpt lat="43.5550066" lon="10.7767"><ele>181.0</ele><time>2026-04-18T07:45:57.999Z</time></trkpt><trkpt lat="43.5550023" lon="10.7768309"><ele>182.0</ele><time>2026-04-18T07:45:58.998Z</time></trkpt><trkpt lat="43.5549673" lon="10.7769385"><ele>183.0</ele><time>2026-04-18T07:45:59.999Z</time></trkpt><trkpt lat="43.5549387" lon="10.7770523"><ele>184.0</ele><time>2026-04-18T07:46:00.999Z</time></trkpt><trkpt lat="43.5549272" lon="10.7771783"><ele>185.0</ele><time>2026-04-18T07:46:01.999Z</time></trkpt><trkpt lat="43.5549233" lon="10.7773189"><ele>186.0</ele><time>2026-04-18T07:46:02.998Z</time></trkpt><trkpt lat="43.5549288" lon="10.7774607"><ele>186.00000000000003</ele><time>2026-04-18T07:46:03.999Z</time></trkpt><trkpt lat="43.5549492" lon="10.7775692"><ele>186.0</ele><time>2026-04-18T07:46:04.999Z</time></trkpt><trkpt lat="43.5549903" lon="10.7776438"><ele>186.0</ele><time>2026-04-18T07:46:05.999Z</time></trkpt><trkpt lat="43.5550524" lon="10.7777052"><ele>186.0</ele><time>2026-04-18T07:46:06.998Z</time></trkpt><trkpt lat="43.5551143" lon="10.7777518"><ele>186.0</ele><time>2026-04-18T07:46:07.999Z</time></trkpt><trkpt lat="43.5551791" lon="10.7777993"><ele>186.00000000000003</ele><time>2026-04-18T07:46:08.999Z</time></trkpt><trkpt lat="43.5552424" lon="10.7778436"><ele>186.0</ele><time>2026-04-18T07:46:09.998Z</time></trkpt><trkpt lat="43.5553248" lon="10.7779529"><ele>185.4</ele><time>2026-04-18T07:46:11.999Z</time></trkpt><trkpt lat="43.555359" lon="10.7781051"><ele>184.8</ele><time>2026-04-18T07:46:13.998Z</time></trkpt><trkpt lat="43.5553631" lon="10.7781931"><ele>184.20000000000002</ele><time>2026-04-18T07:46:14.999Z</time></trkpt><trkpt lat="43.5553709" lon="10.7783053"><ele>183.60000000000002</ele><time>2026-04-18T07:46:15.999Z</time></trkpt><trkpt lat="43.5553857" lon="10.7784529"><ele>183.0</ele><time>2026-04-18T07:46:16.998Z</time></trkpt><trkpt lat="43.5553922" lon="10.7786217"><ele>182.4</ele><time>2026-04-18T07:46:17.999Z</time></trkpt><trkpt lat="43.5554017" lon="10.7787803"><ele>181.8</ele><time>2026-04-18T07:46:18.999Z</time></trkpt><trkpt lat="43.5554033" lon="10.7789423"><ele>181.2</ele><time>2026-04-18T07:46:19.999Z</time></trkpt><trkpt lat="43.5554035" lon="10.7790875"><ele>180.6</ele><time>2026-04-18T07:46:20.999Z</time></trkpt><trkpt lat="43.5554073" lon="10.7792347"><ele>180.0</ele><time>2026-04-18T07:46:21.999Z</time></trkpt><trkpt lat="43.5553934" lon="10.7793711"><ele>179.6</ele><time>2026-04-18T07:46:22.999Z</time></trkpt><trkpt lat="43.5553897" lon="10.7795048"><ele>179.2</ele><time>2026-04-18T07:46:23.999Z</time></trkpt><trkpt lat="43.5554" lon="10.7796393"><ele>178.8</ele><time>2026-04-18T07:46:24.999Z</time></trkpt><trkpt lat="43.5554186" lon="10.7797785"><ele>178.4</ele><time>2026-04-18T07:46:25.999Z</time></trkpt><trkpt lat="43.5554553" lon="10.7799155"><ele>178.0</ele><time>2026-04-18T07:46:26.998Z</time></trkpt><trkpt lat="43.5555047" lon="10.7800611"><ele>178.75</ele><time>2026-04-18T07:46:27.999Z</time></trkpt><trkpt lat="43.5555577" lon="10.780216"><ele>179.5</ele><time>2026-04-18T07:46:28.999Z</time></trkpt><trkpt lat="43.5556184" lon="10.7803935"><ele>180.25</ele><time>2026-04-18T07:46:29.999Z</time></trkpt><trkpt lat="43.5556774" lon="10.7805744"><ele>181.0</ele><time>2026-04-18T07:46:30.998Z</time></trkpt><trkpt lat="43.5557321" lon="10.780745"><ele>181.0</ele><time>2026-04-18T07:46:31.999Z</time></trkpt><trkpt lat="43.5557743" lon="10.7808851"><ele>181.0</ele><time>2026-04-18T07:46:32.999Z</time></trkpt><trkpt lat="43.5557931" lon="10.7810331"><ele>181.0</ele><time>2026-04-18T07:46:33.999Z</time></trkpt><trkpt lat="43.5558068" lon="10.7811937"><ele>181.0</ele><time>2026-04-18T07:46:34.998Z</time></trkpt><trkpt lat="43.5558053" lon="10.7813502"><ele>181.0</ele><time>2026-04-18T07:46:35.999Z</time></trkpt><trkpt lat="43.5557946" lon="10.7814953"><ele>181.0</ele><time>2026-04-18T07:46:36.999Z</time></trkpt><trkpt lat="43.5557851" lon="10.7816179"><ele>181.0</ele><time>2026-04-18T07:46:37.999Z</time></trkpt><trkpt lat="43.5557727" lon="10.7817118"><ele>181.0</ele><time>2026-04-18T07:46:38.999Z</time></trkpt><trkpt lat="43.5557574" lon="10.7817988"><ele>181.0</ele><time>2026-04-18T07:46:39.999Z</time></trkpt><trkpt lat="43.5557224" lon="10.7818834"><ele>181.0</ele><time>2026-04-18T07:46:40.999Z</time></trkpt><trkpt lat="43.555693" lon="10.7819715"><ele>181.0</ele><time>2026-04-18T07:46:41.998Z</time></trkpt><trkpt lat="43.5556615" lon="10.7820671"><ele>181.0</ele><time>2026-04-18T07:46:42.998Z</time></trkpt><trkpt lat="43.5556382" lon="10.7821719"><ele>179.0</ele><time>2026-04-18T07:46:43.999Z</time></trkpt><trkpt lat="43.555618" lon="10.7822969"><ele>177.0</ele><time>2026-04-18T07:46:44.999Z</time></trkpt><trkpt lat="43.5555989" lon="10.7824501"><ele>175.0</ele><time>2026-04-18T07:46:45.999Z</time></trkpt><trkpt lat="43.555574" lon="10.7826378"><ele>173.0</ele><time>2026-04-18T07:46:46.998Z</time></trkpt><trkpt lat="43.5555509" lon="10.7828582"><ele>169.66666666666666</ele><time>2026-04-18T07:46:47.999Z</time></trkpt><trkpt lat="43.5555319" lon="10.7830788"><ele>166.33333333333334</ele><time>2026-04-18T07:46:48.999Z</time></trkpt><trkpt lat="43.5555121" lon="10.7832964"><ele>163.0</ele><time>2026-04-18T07:46:49.999Z</time></trkpt><trkpt lat="43.555496" lon="10.7835036"><ele>161.25</ele><time>2026-04-18T07:46:50.998Z</time></trkpt><trkpt lat="43.55548" lon="10.7837"><ele>159.5</ele><time>2026-04-18T07:46:51.999Z</time></trkpt><trkpt lat="43.5554587" lon="10.7838703"><ele>157.75</ele><time>2026-04-18T07:46:52.998Z</time></trkpt><trkpt lat="43.5554584" lon="10.7840396"><ele>156.0</ele><time>2026-04-18T07:46:53.998Z</time></trkpt><trkpt lat="43.5554797" lon="10.7842292"><ele>155.33333333333334</ele><time>2026-04-18T07:46:54.999Z</time></trkpt><trkpt lat="43.5555373" lon="10.7844262"><ele>154.66666666666669</ele><time>2026-04-18T07:46:55.999Z</time></trkpt><trkpt lat="43.5556094" lon="10.784646"><ele>154.0</ele><time>2026-04-18T07:46:56.999Z</time></trkpt><trkpt lat="43.5556822" lon="10.7848283"><ele>154.0</ele><time>2026-04-18T07:46:57.998Z</time></trkpt><trkpt lat="43.5557138" lon="10.7850114"><ele>154.0</ele><time>2026-04-18T07:46:58.999Z</time></trkpt><trkpt lat="43.5557291" lon="10.785205"><ele>154.0</ele><time>2026-04-18T07:46:59.998Z</time></trkpt><trkpt lat="43.5557011" lon="10.7854102"><ele>154.0</ele><time>2026-04-18T07:47:00.998Z</time></trkpt><trkpt lat="43.5556514" lon="10.7856003"><ele>154.4</ele><time>2026-04-18T07:47:01.999Z</time></trkpt><trkpt lat="43.5556331" lon="10.7857292"><ele>154.8</ele><time>2026-04-18T07:47:02.999Z</time></trkpt><trkpt lat="43.555674" lon="10.7858765"><ele>155.2</ele><time>2026-04-18T07:47:03.999Z</time></trkpt><trkpt lat="43.555746" lon="10.7860007"><ele>155.6</ele><time>2026-04-18T07:47:04.999Z</time></trkpt><trkpt lat="43.5558411" lon="10.7860688"><ele>156.0</ele><time>2026-04-18T07:47:05.998Z</time></trkpt><trkpt lat="43.5559601" lon="10.7861558"><ele>156.0</ele><time>2026-04-18T07:47:06.999Z</time></trkpt><trkpt lat="43.5560717" lon="10.7862611"><ele>156.0</ele><time>2026-04-18T07:47:07.999Z</time></trkpt><trkpt lat="43.5561887" lon="10.7864212"><ele>156.0</ele><time>2026-04-18T07:47:08.998Z</time></trkpt><trkpt lat="43.5562936" lon="10.7865968"><ele>155.0</ele><time>2026-04-18T07:47:09.999Z</time></trkpt><trkpt lat="43.5564028" lon="10.7867811"><ele>154.0</ele><time>2026-04-18T07:47:10.999Z</time></trkpt><trkpt lat="43.5565102" lon="10.7869498"><ele>153.0</ele><time>2026-04-18T07:47:11.999Z</time></trkpt><trkpt lat="43.556604" lon="10.7871128"><ele>152.66666666666666</ele><time>2026-04-18T07:47:12.999Z</time></trkpt><trkpt lat="43.5566909" lon="10.7872819"><ele>152.33333333333331</ele><time>2026-04-18T07:47:13.999Z</time></trkpt><trkpt lat="43.5567706" lon="10.7874497"><ele>152.0</ele><time>2026-04-18T07:47:14.998Z</time></trkpt><trkpt lat="43.5568428" lon="10.7876571"><ele>150.33333333333331</ele><time>2026-04-18T07:47:15.999Z</time></trkpt><trkpt lat="43.5569145" lon="10.7878874"><ele>148.66666666666666</ele><time>2026-04-18T07:47:16.999Z</time></trkpt><trkpt lat="43.5569755" lon="10.7881133"><ele>147.0</ele><time>2026-04-18T07:47:17.999Z</time></trkpt><trkpt lat="43.5570394" lon="10.7883208"><ele>150.0</ele><time>2026-04-18T07:47:18.998Z</time></trkpt><trkpt lat="43.5571262" lon="10.7885359"><ele>153.0</ele><time>2026-04-18T07:47:19.999Z</time></trkpt><trkpt lat="43.5572218" lon="10.7887351"><ele>156.0</ele><time>2026-04-18T07:47:20.999Z</time></trkpt><trkpt lat="43.5572868" lon="10.7889092"><ele>156.0</ele><time>2026-04-18T07:47:21.999Z</time></trkpt><trkpt lat="43.5573327" lon="10.7890825"><ele>156.0</ele><time>2026-04-18T07:47:22.999Z</time></trkpt><trkpt lat="43.5573522" lon="10.7892588"><ele>156.0</ele><time>2026-04-18T07:47:23.999Z</time></trkpt><trkpt lat="43.5573713" lon="10.7894641"><ele>156.0</ele><time>2026-04-18T07:47:24.999Z</time></trkpt><trkpt lat="43.5573978" lon="10.7896379"><ele>155.0</ele><time>2026-04-18T07:47:25.998Z</time></trkpt><trkpt lat="43.557451" lon="10.789802"><ele>154.0</ele><time>2026-04-18T07:47:26.999Z</time></trkpt><trkpt lat="43.5575237" lon="10.7899541"><ele>153.0</ele><time>2026-04-18T07:47:27.999Z</time></trkpt><trkpt lat="43.5576267" lon="10.7901292"><ele>152.0</ele><time>2026-04-18T07:47:28.999Z</time></trkpt><trkpt lat="43.5577271" lon="10.7903217"><ele>149.0</ele><time>2026-04-18T07:47:29.999Z</time></trkpt><trkpt lat="43.5578321" lon="10.790513"><ele>146.0</ele><time>2026-04-18T07:47:30.999Z</time></trkpt><trkpt lat="43.5579148" lon="10.7906834"><ele>143.0</ele><time>2026-04-18T07:47:31.998Z</time></trkpt><trkpt lat="43.5579889" lon="10.7908414"><ele>143.0</ele><time>2026-04-18T07:47:32.999Z</time></trkpt><trkpt lat="43.5580416" lon="10.7909954"><ele>143.0</ele><time>2026-04-18T07:47:33.998Z</time></trkpt><trkpt lat="43.5580742" lon="10.7911503"><ele>143.0</ele><time>2026-04-18T07:47:34.998Z</time></trkpt><trkpt lat="43.5580788" lon="10.7913126"><ele>143.0</ele><time>2026-04-18T07:47:35.998Z</time></trkpt><trkpt lat="43.5580719" lon="10.7914842"><ele>143.0</ele><time>2026-04-18T07:47:36.998Z</time></trkpt><trkpt lat="43.5580291" lon="10.7916862"><ele>143.0</ele><time>2026-04-18T07:47:37.999Z</time></trkpt><trkpt lat="43.5579472" lon="10.7918947"><ele>143.0</ele><time>2026-04-18T07:47:38.999Z</time></trkpt><trkpt lat="43.5578516" lon="10.7920515"><ele>143.0</ele><time>2026-04-18T07:47:39.999Z</time></trkpt><trkpt lat="43.5578097" lon="10.7921911"><ele>143.0</ele><time>2026-04-18T07:47:40.999Z</time></trkpt><trkpt lat="43.5578248" lon="10.7923289"><ele>143.0</ele><time>2026-04-18T07:47:41.999Z</time></trkpt><trkpt lat="43.5578721" lon="10.792487"><ele>143.0</ele><time>2026-04-18T07:47:42.998Z</time></trkpt><trkpt lat="43.557907" lon="10.7926482"><ele>145.66666666666666</ele><time>2026-04-18T07:47:43.999Z</time></trkpt><trkpt lat="43.5579546" lon="10.7928478"><ele>148.33333333333334</ele><time>2026-04-18T07:47:44.999Z</time></trkpt><trkpt lat="43.5580108" lon="10.7930592"><ele>151.0</ele><time>2026-04-18T07:47:45.999Z</time></trkpt><trkpt lat="43.5580695" lon="10.7932823"><ele>151.0</ele><time>2026-04-18T07:47:46.999Z</time></trkpt><trkpt lat="43.558129" lon="10.7934832"><ele>151.0</ele><time>2026-04-18T07:47:47.999Z</time></trkpt><trkpt lat="43.5581746" lon="10.7936848"><ele>151.0</ele><time>2026-04-18T07:47:48.999Z</time></trkpt><trkpt lat="43.5581931" lon="10.7938651"><ele>151.0</ele><time>2026-04-18T07:47:49.999Z</time></trkpt><trkpt lat="43.5581974" lon="10.7940314"><ele>150.75</ele><time>2026-04-18T07:47:50.999Z</time></trkpt><trkpt lat="43.5582165" lon="10.7941832"><ele>150.5</ele><time>2026-04-18T07:47:51.999Z</time></trkpt><trkpt lat="43.5582707" lon="10.794344"><ele>150.25</ele><time>2026-04-18T07:47:52.999Z</time></trkpt><trkpt lat="43.5583621" lon="10.7945171"><ele>150.0</ele><time>2026-04-18T07:47:53.999Z</time></trkpt><trkpt lat="43.5584653" lon="10.7946999"><ele>150.33333333333334</ele><time>2026-04-18T07:47:54.999Z</time></trkpt><trkpt lat="43.5585593" lon="10.7949036"><ele>150.66666666666669</ele><time>2026-04-18T07:47:55.999Z</time></trkpt><trkpt lat="43.5586561" lon="10.7951074"><ele>151.0</ele><time>2026-04-18T07:47:56.999Z</time></trkpt><trkpt lat="43.558767" lon="10.795288"><ele>151.0</ele><time>2026-04-18T07:47:57.999Z</time></trkpt><trkpt lat="43.5589088" lon="10.7954427"><ele>151.0</ele><time>2026-04-18T07:47:58.999Z</time></trkpt><trkpt lat="43.5590613" lon="10.795567"><ele>151.0</ele><time>2026-04-18T07:47:59.999Z</time></trkpt><trkpt lat="43.5591838" lon="10.7956651"><ele>151.0</ele><time>2026-04-18T07:48:00.999Z</time></trkpt><trkpt lat="43.5592766" lon="10.7957412"><ele>151.0</ele><time>2026-04-18T07:48:01.999Z</time></trkpt><trkpt lat="43.559372" lon="10.7958259"><ele>151.0</ele><time>2026-04-18T07:48:02.999Z</time></trkpt><trkpt lat="43.5594782" lon="10.795963"><ele>151.0</ele><time>2026-04-18T07:48:03.999Z</time></trkpt><trkpt lat="43.5595771" lon="10.7961384"><ele>156.66666666666669</ele><time>2026-04-18T07:48:04.999Z</time></trkpt><trkpt lat="43.5596628" lon="10.7963327"><ele>162.33333333333334</ele><time>2026-04-18T07:48:05.999Z</time></trkpt><trkpt lat="43.559762" lon="10.796524"><ele>168.0</ele><time>2026-04-18T07:48:06.999Z</time></trkpt><trkpt lat="43.5598702" lon="10.7967142"><ele>165.25</ele><time>2026-04-18T07:48:07.999Z</time></trkpt><trkpt lat="43.5599845" lon="10.7968882"><ele>162.5</ele><time>2026-04-18T07:48:08.999Z</time></trkpt><trkpt lat="43.5600846" lon="10.797037"><ele>159.75</ele><time>2026-04-18T07:48:09.999Z</time></trkpt><trkpt lat="43.5601626" lon="10.7971683"><ele>157.0</ele><time>2026-04-18T07:48:10.999Z</time></trkpt><trkpt lat="43.5602504" lon="10.7972899"><ele>157.0</ele><time>2026-04-18T07:48:11.999Z</time></trkpt><trkpt lat="43.5603641" lon="10.7974028"><ele>157.0</ele><time>2026-04-18T07:48:12.999Z</time></trkpt><trkpt lat="43.5605025" lon="10.7974633"><ele>157.0</ele><time>2026-04-18T07:48:13.999Z</time></trkpt><trkpt lat="43.5606689" lon="10.7974792"><ele>160.66666666666669</ele><time>2026-04-18T07:48:14.998Z</time></trkpt><trkpt lat="43.5608457" lon="10.7974671"><ele>164.33333333333334</ele><time>2026-04-18T07:48:15.999Z</time></trkpt><trkpt lat="43.5610308" lon="10.7974526"><ele>168.0</ele><time>2026-04-18T07:48:16.998Z</time></trkpt><trkpt lat="43.561221" lon="10.7974681"><ele>168.0</ele><time>2026-04-18T07:48:17.999Z</time></trkpt><trkpt lat="43.561407" lon="10.7975076"><ele>168.0</ele><time>2026-04-18T07:48:18.998Z</time></trkpt><trkpt lat="43.5615921" lon="10.7975637"><ele>168.0</ele><time>2026-04-18T07:48:19.999Z</time></trkpt><trkpt lat="43.5617509" lon="10.7976177"><ele>168.0</ele><time>2026-04-18T07:48:20.999Z</time></trkpt><trkpt lat="43.5618687" lon="10.7976643"><ele>168.0</ele><time>2026-04-18T07:48:21.999Z</time></trkpt><trkpt lat="43.5619606" lon="10.7976932"><ele>168.0</ele><time>2026-04-18T07:48:22.999Z</time></trkpt><trkpt lat="43.5620427" lon="10.7977127"><ele>168.0</ele><time>2026-04-18T07:48:23.999Z</time></trkpt><trkpt lat="43.5621091" lon="10.7977306"><ele>168.0</ele><time>2026-04-18T07:48:24.999Z</time></trkpt><trkpt lat="43.5622132" lon="10.7977905"><ele>169.66666666666666</ele><time>2026-04-18T07:48:26.999Z</time></trkpt><trkpt lat="43.5622694" lon="10.7978577"><ele>171.33333333333334</ele><time>2026-04-18T07:48:28.999Z</time></trkpt><trkpt lat="43.5623486" lon="10.7979188"><ele>173.0</ele><time>2026-04-18T07:48:45.999Z</time></trkpt><trkpt lat="43.5624567" lon="10.7979985"><ele>174.66666666666669</ele><time>2026-04-18T07:48:47.999Z</time></trkpt><trkpt lat="43.5625145" lon="10.7980626"><ele>176.33333333333334</ele><time>2026-04-18T07:48:48.999Z</time></trkpt><trkpt lat="43.5625657" lon="10.7981183"><ele>178.0</ele><time>2026-04-18T07:48:49.999Z</time></trkpt><trkpt lat="43.5626573" lon="10.798219"><ele>178.0</ele><time>2026-04-18T07:48:51.999Z</time></trkpt><trkpt lat="43.562751" lon="10.7983144"><ele>178.0</ele><time>2026-04-18T07:48:53.998Z</time></trkpt><trkpt lat="43.562855" lon="10.7983985"><ele>178.0</ele><time>2026-04-18T07:48:55.999Z</time></trkpt><trkpt lat="43.5629553" lon="10.7984894"><ele>178.0</ele><time>2026-04-18T07:48:57.998Z</time></trkpt><trkpt lat="43.5630479" lon="10.79858"><ele>179.83333333333334</ele><time>2026-04-18T07:48:59.999Z</time></trkpt><trkpt lat="43.5631371" lon="10.7986454"><ele>181.66666666666669</ele><time>2026-04-18T07:49:01.999Z</time></trkpt><trkpt lat="43.5631954" lon="10.7986921"><ele>183.5</ele><time>2026-04-18T07:49:03.999Z</time></trkpt><trkpt lat="43.5632727" lon="10.798761"><ele>185.33333333333334</ele><time>2026-04-18T07:49:05.998Z</time></trkpt><trkpt lat="43.563332" lon="10.7988091"><ele>187.16666666666666</ele><time>2026-04-18T07:49:06.999Z</time></trkpt><trkpt lat="43.5634226" lon="10.7988719"><ele>189.0</ele><time>2026-04-18T07:49:07.999Z</time></trkpt><trkpt lat="43.5635209" lon="10.7989559"><ele>189.0</ele><time>2026-04-18T07:49:08.999Z</time></trkpt><trkpt lat="43.5636233" lon="10.7990687"><ele>189.0</ele><time>2026-04-18T07:49:09.999Z</time></trkpt><trkpt lat="43.5637129" lon="10.7991987"><ele>189.0</ele><time>2026-04-18T07:49:10.998Z</time></trkpt><trkpt lat="43.5637816" lon="10.7993466"><ele>189.0</ele><time>2026-04-18T07:49:11.998Z</time></trkpt><trkpt lat="43.5638212" lon="10.799493"><ele>188.2</ele><time>2026-04-18T07:49:12.999Z</time></trkpt><trkpt lat="43.5638449" lon="10.7996183"><ele>187.39999999999998</ele><time>2026-04-18T07:49:13.999Z</time></trkpt><trkpt lat="43.563903" lon="10.7997343"><ele>186.6</ele><time>2026-04-18T07:49:14.998Z</time></trkpt><trkpt lat="43.5639862" lon="10.799837"><ele>185.8</ele><time>2026-04-18T07:49:15.999Z</time></trkpt><trkpt lat="43.5640619" lon="10.7999129"><ele>185.0</ele><time>2026-04-18T07:49:16.999Z</time></trkpt><trkpt lat="43.5641241" lon="10.7999688"><ele>185.0</ele><time>2026-04-18T07:49:17.999Z</time></trkpt><trkpt lat="43.5641823" lon="10.8000208"><ele>185.0</ele><time>2026-04-18T07:49:19.999Z</time></trkpt></trkseg></trk></gpx>